Time;durP1;ratioP1;P1;durP2;ratioP2;P2;SDS_P1;SDS_P2;PMS_P1;PMS_P2;Temp;Humidity;BMP_temperature;BMP_pressure;BME280_temperature;BME280_humidity;BME280_pressure;Samples;Min_cycle;Max_cycle;Signal;HPM_P1;HPM_P2
2022/04/07 00:02:14;;;;;;;;;;;;;;;20.15;31.22;97700.41;4455259;32;35264;-81
2022/04/07 00:04:42;;;;;;;;;;;;;;;20.12;31.00;97690.06;4451575;32;34107;-80
2022/04/07 00:07:09;;;;;;;;;;;;;;;20.00;30.98;97682.75;4448430;32;33445;-83
2022/04/07 00:09:37;;;;;;;;;;;;;;;19.84;31.40;97677.37;4461543;32;33949;-84
2022/04/07 00:12:05;;;;;;;;;;;;;;;19.67;31.62;97679.06;4460483;32;34245;-80
2022/04/07 00:14:32;;;;;;;;;;;;;;;19.78;31.35;97673.28;4466259;32;33741;-82
2022/04/07 00:16:59;;;;;;;;;;;;;;;19.85;31.47;97666.81;4466061;32;35097;-81
2022/04/07 00:19:27;;;;;;;;;;;;;;;19.82;31.42;97674.84;4465696;32;34279;-81
2022/04/07 00:21:56;;;;;;;;;;;;;;;19.88;31.45;97663.16;4460441;32;34499;-85
2022/04/07 00:24:23;;;;;;;;;;;;;;;19.98;31.10;97656.53;4465569;32;34403;-81
2022/04/07 00:26:51;;;;;;;;;;;;;;;19.95;31.05;97654.03;4466402;32;34534;-85
2022/04/07 00:29:18;;;;;;;;;;;;;;;19.95;31.14;97661.09;4438501;32;34400;-82
2022/04/07 00:31:45;;;;;;;;;;;;;;;19.81;31.33;97651.22;4458477;32;35139;-81
2022/04/07 00:34:14;;;;;;;;;;;;;;;19.73;31.54;97648.97;4466075;32;33215;-81
2022/04/07 00:36:41;;;;;;;;;;;;;;;19.82;31.33;97645.91;4466680;32;34324;-85
2022/04/07 00:39:08;;;;;;;;;;;;;;;19.80;31.39;97639.88;4460519;32;35240;-81
2022/04/07 00:41:37;;;;;;;;;;;;;;;19.66;31.72;97637.94;4458197;32;34376;-81
2022/04/07 00:44:08;;;;;;;;;;;;;;;19.68;31.55;97635.22;4466811;32;34385;-81
2022/04/07 00:46:36;;;;;;;;;;;;;;;19.80;31.31;97634.59;4466530;32;34386;-81
2022/04/07 00:49:04;;;;;;;;;;;;;;;19.76;31.56;97627.78;4451649;32;35287;-84
2022/04/07 00:51:31;;;;;;;;;;;;;;;19.63;31.79;97627.56;4460328;32;35439;-81
2022/04/07 00:53:59;;;;;;;;;;;;;;;19.65;31.69;97627.47;4466317;32;33016;-81
2022/04/07 00:56:26;;;;;;;;;;;;;;;19.52;32.02;97628.97;4452562;32;35095;-81
2022/04/07 00:58:53;;;;;;;;;;;;;;;19.43;32.23;97625.84;4451010;32;34946;-85
2022/04/07 01:01:23;;;;;;;;;;;;;;;19.62;32.01;97624.97;4441443;32;34538;-85
2022/04/07 01:03:54;;;;;;;;;;;;;;;19.28;32.45;97620.44;4437446;32;34565;-81
2022/04/07 01:06:21;;;;;;;;;;;;;;;19.45;32.19;97615.25;4436617;32;34111;-82
2022/04/07 01:08:49;;;;;;;;;;;;;;;19.22;32.60;97618.13;4440568;32;34389;-81
2022/04/07 01:11:16;;;;;;;;;;;;;;;19.05;32.79;97618.88;4459579;32;34400;-80
2022/04/07 01:13:45;;;;;;;;;;;;;;;19.08;32.88;97621.38;4454915;32;33484;-79
2022/04/07 01:16:13;;;;;;;;;;;;;;;19.05;33.07;97618.88;4438731;32;35489;-85
2022/04/07 01:18:40;;;;;;;;;;;;;;;19.02;32.77;97611.19;4452935;32;35150;-81
2022/04/07 01:21:08;;;;;;;;;;;;;;;18.74;33.06;97612.41;4437648;32;34452;-81
2022/04/07 01:23:35;;;;;;;;;;;;;;;18.84;32.94;97611.09;4455784;32;33574;-82
2022/04/07 01:26:03;;;;;;;;;;;;;;;18.70;33.42;97614.31;4443206;32;33987;-86
2022/04/07 01:28:31;;;;;;;;;;;;;;;18.53;33.56;97602.84;4459746;32;34471;-81
2022/04/07 01:30:58;;;;;;;;;;;;;;;18.51;33.51;97602.06;4451779;32;34367;-81
2022/04/07 01:33:26;;;;;;;;;;;;;;;18.81;33.01;97592.00;4444635;32;33548;-81
2022/04/07 01:35:53;;;;;;;;;;;;;;;18.86;33.11;97590.84;4444500;32;34141;-81
2022/04/07 01:38:20;;;;;;;;;;;;;;;18.82;33.26;97585.81;4445781;32;33785;-85
2022/04/07 01:40:48;;;;;;;;;;;;;;;18.56;33.21;97589.56;4465128;32;34397;-81
2022/04/07 01:43:15;;;;;;;;;;;;;;;18.33;33.82;97588.81;4448520;32;33596;-85
2022/04/07 01:45:42;;;;;;;;;;;;;;;18.42;33.61;97583.19;4452498;32;34285;-81
2022/04/07 01:48:10;;;;;;;;;;;;;;;18.63;33.25;97586.59;4466453;32;34772;-84
2022/04/07 01:50:38;;;;;;;;;;;;;;;18.96;32.85;97588.66;4466305;32;35554;-80
2022/04/07 01:53:05;;;;;;;;;;;;;;;18.75;32.93;97585.22;4439184;32;33362;-82
2022/04/07 01:55:32;;;;;;;;;;;;;;;18.57;33.23;97588.69;4438910;32;34275;-84
2022/04/07 01:58:00;;;;;;;;;;;;;;;18.70;33.15;97572.31;4449637;32;33927;-82
2022/04/07 02:00:27;;;;;;;;;;;;;;;18.53;33.31;97569.59;4438844;32;35690;-84
2022/04/07 02:02:55;;;;;;;;;;;;;;;18.56;33.59;97560.69;4452047;32;34522;-81
2022/04/07 02:05:22;;;;;;;;;;;;;;;18.43;33.75;97558.62;4452256;32;34153;-83
2022/04/07 02:07:52;;;;;;;;;;;;;;;18.49;33.14;97549.66;4450141;32;33726;-81
2022/04/07 02:10:19;;;;;;;;;;;;;;;18.59;33.39;97552.69;4466146;32;34131;-86
2022/04/07 02:12:46;;;;;;;;;;;;;;;18.30;33.85;97551.41;4466095;32;33210;-80
2022/04/07 02:15:14;;;;;;;;;;;;;;;18.09;34.19;97547.94;4464806;32;33678;-81
2022/04/07 02:17:41;;;;;;;;;;;;;;;18.12;34.18;97537.31;4465265;32;35538;-82
2022/04/07 02:20:09;;;;;;;;;;;;;;;18.30;33.89;97533.03;4455633;32;35175;-82
2022/04/07 02:22:37;;;;;;;;;;;;;;;18.46;33.53;97524.37;4451526;32;33319;-84
2022/04/07 02:25:05;;;;;;;;;;;;;;;18.81;32.95;97523.72;4463795;32;33669;-81
2022/04/07 02:27:36;;;;;;;;;;;;;;;18.36;33.57;97499.47;4458870;32;34172;-81
2022/04/07 02:30:04;;;;;;;;;;;;;;;18.44;33.66;97505.22;4438191;32;35220;-82
2022/04/07 02:32:31;;;;;;;;;;;;;;;18.74;33.25;97491.66;4437764;32;33646;-83
2022/04/07 02:34:59;;;;;;;;;;;;;;;18.75;33.13;97492.50;4458466;32;34242;-85
2022/04/07 02:37:26;;;;;;;;;;;;;;;18.45;33.53;97493.84;4457039;32;34030;-80
2022/04/07 02:39:53;;;;;;;;;;;;;;;18.60;33.54;97489.66;4452715;32;35073;-82
2022/04/07 02:42:20;;;;;;;;;;;;;;;18.67;33.18;97488.41;4438067;32;33821;-80
2022/04/07 02:44:48;;;;;;;;;;;;;;;18.35;32.72;97482.03;4455580;32;34262;-84
2022/04/07 02:47:15;;;;;;;;;;;;;;;17.11;35.89;97479.47;4457985;32;34542;-83
2022/04/07 02:49:42;;;;;;;;;;;;;;;17.48;34.98;97473.56;4451781;32;35121;-83
2022/04/07 02:52:10;;;;;;;;;;;;;;;17.38;34.96;97472.25;4462767;32;33638;-80
2022/04/07 02:54:38;;;;;;;;;;;;;;;18.01;33.94;97469.59;4454474;32;34853;-81
2022/04/07 02:57:05;;;;;;;;;;;;;;;17.62;35.38;97467.75;4459164;32;35256;-80
2022/04/07 02:59:33;;;;;;;;;;;;;;;17.48;35.34;97462.25;4454169;32;34640;-80
2022/04/07 03:02:00;;;;;;;;;;;;;;;16.78;36.29;97461.59;4467431;32;33547;-81
2022/04/07 03:04:28;;;;;;;;;;;;;;;17.36;35.42;97447.91;4458792;32;34012;-81
2022/04/07 03:06:55;;;;;;;;;;;;;;;17.17;35.73;97453.03;4467160;32;35151;-81
2022/04/07 03:09:22;;;;;;;;;;;;;;;17.23;35.54;97447.53;4454253;32;34361;-84
2022/04/07 03:11:49;;;;;;;;;;;;;;;17.13;36.22;97450.63;4457843;32;33537;-82
2022/04/07 03:14:17;;;;;;;;;;;;;;;17.22;35.99;97442.38;4462046;32;34330;-83
2022/04/07 03:16:48;;;;;;;;;;;;;;;17.80;34.73;97442.53;4465502;32;34129;-82
2022/04/07 03:19:16;;;;;;;;;;;;;;;17.70;34.78;97444.69;4466239;32;34204;-84
2022/04/07 03:21:44;;;;;;;;;;;;;;;17.86;34.26;97436.19;4455530;32;34106;-81
2022/04/07 03:24:12;;;;;;;;;;;;;;;18.37;33.44;97439.97;4439170;32;33644;-80
2022/04/07 03:27:01;;;;;;;;;;;;;;;18.41;33.27;97434.56;4456417;32;33874;-82
2022/04/07 03:29:30;;;;;;;;;;;;;;;18.09;33.58;97443.03;4467359;32;34206;-81
2022/04/07 03:31:57;;;;;;;;;;;;;;;18.08;33.53;97441.34;4459162;32;34673;-81
2022/04/07 03:34:24;;;;;;;;;;;;;;;17.89;33.81;97433.44;4456925;32;34259;-85
2022/04/07 03:36:51;;;;;;;;;;;;;;;18.26;33.32;97435.25;4451739;32;33774;-83
2022/04/07 03:39:19;;;;;;;;;;;;;;;18.12;33.39;97429.78;4464848;32;34236;-81
2022/04/07 03:41:46;;;;;;;;;;;;;;;17.46;34.80;97422.16;4462579;32;33676;-82
2022/04/07 03:44:14;;;;;;;;;;;;;;;17.35;35.08;97414.78;4465928;32;34797;-82
2022/04/07 03:46:41;;;;;;;;;;;;;;;18.28;33.59;97411.56;4451628;32;33958;-86
2022/04/07 03:49:08;;;;;;;;;;;;;;;18.45;33.64;97411.66;4437548;32;34612;-81
2022/04/07 03:51:36;;;;;;;;;;;;;;;18.15;34.38;97412.13;4457255;32;33675;-80
2022/04/07 03:54:10;;;;;;;;;;;;;;;18.33;34.14;97409.56;4462833;32;34464;-81
2022/04/07 03:56:38;;;;;;;;;;;;;;;18.53;33.81;97403.41;4452098;32;35213;-86
2022/04/07 03:59:05;;;;;;;;;;;;;;;18.60;33.34;97405.66;4465554;32;34872;-81
2022/04/07 04:01:32;;;;;;;;;;;;;;;18.64;33.27;97395.88;4465611;32;33504;-84
2022/04/07 04:04:01;;;;;;;;;;;;;;;18.59;33.22;97382.94;4466667;32;34206;-81
2022/04/07 04:06:29;;;;;;;;;;;;;;;18.12;34.26;97385.19;4438865;32;34238;-84
2022/04/07 04:08:56;;;;;;;;;;;;;;;17.96;34.37;97385.91;4437803;32;33896;-85
2022/04/07 04:11:23;;;;;;;;;;;;;;;17.96;34.29;97380.66;4457416;32;33591;-80
2022/04/07 04:13:50;;;;;;;;;;;;;;;18.37;33.92;97388.41;4466714;32;35539;-82
2022/04/07 04:16:18;;;;;;;;;;;;;;;17.96;34.54;97387.69;4454744;32;34933;-79
2022/04/07 04:18:45;;;;;;;;;;;;;;;18.26;34.20;97381.91;4463940;32;34399;-80
2022/04/07 04:21:13;;;;;;;;;;;;;;;18.34;34.02;97387.69;4457146;32;33437;-80
2022/04/07 04:23:40;;;;;;;;;;;;;;;18.42;34.03;97389.00;4451418;32;34195;-86
2022/04/07 04:26:08;;;;;;;;;;;;;;;18.67;33.79;97387.81;4455470;32;34007;-80
2022/04/07 04:28:35;;;;;;;;;;;;;;;18.59;33.75;97390.81;4459549;32;35546;-85
2022/04/07 04:31:02;;;;;;;;;;;;;;;18.72;33.63;97391.12;4454751;32;33154;-80
2022/04/07 04:33:30;;;;;;;;;;;;;;;18.30;34.16;97389.59;4454325;32;33814;-81
2022/04/07 04:35:59;;;;;;;;;;;;;;;18.59;33.83;97387.34;4445779;32;33856;-81
2022/04/07 04:38:26;;;;;;;;;;;;;;;18.50;34.06;97385.19;4451767;32;34707;-81
2022/04/07 04:40:53;;;;;;;;;;;;;;;17.82;35.23;97392.69;4454399;32;34338;-84
2022/04/07 04:43:21;;;;;;;;;;;;;;;17.64;35.13;97378.59;4447017;32;34261;-81
2022/04/07 04:45:48;;;;;;;;;;;;;;;17.83;35.11;97373.41;4464103;32;35361;-81
2022/04/07 04:48:15;;;;;;;;;;;;;;;17.63;35.50;97376.88;4467315;32;34355;-85
2022/04/07 04:50:43;;;;;;;;;;;;;;;17.28;35.77;97381.91;4467554;32;33459;-83
2022/04/07 04:53:11;;;;;;;;;;;;;;;16.87;36.41;97384.47;4457778;32;34240;-80
2022/04/07 04:55:38;;;;;;;;;;;;;;;17.43;35.25;97380.38;4459578;32;34218;-80
2022/04/07 04:58:05;;;;;;;;;;;;;;;17.85;34.50;97385.53;4464743;32;34286;-81
2022/04/07 05:00:32;;;;;;;;;;;;;;;17.90;34.52;97388.78;4467265;32;33569;-81
2022/04/07 05:03:00;;;;;;;;;;;;;;;17.79;34.87;97396.28;4453301;32;34519;-81
2022/04/07 05:05:27;;;;;;;;;;;;;;;17.44;35.55;97403.88;4467290;32;34465;-81
2022/04/07 05:07:54;;;;;;;;;;;;;;;17.71;35.35;97393.13;4459581;32;34397;-80
2022/04/07 05:10:22;;;;;;;;;;;;;;;17.81;35.10;97388.38;4450051;32;32990;-82
2022/04/07 05:12:49;;;;;;;;;;;;;;;17.73;35.48;97386.91;4449331;32;34879;-83
2022/04/07 05:15:16;;;;;;;;;;;;;;;17.79;34.48;97392.81;4450931;32;34562;-82
2022/04/07 05:17:50;;;;;;;;;;;;;;;18.08;34.29;97386.25;4438062;32;34284;-81
2022/04/07 05:20:18;;;;;;;;;;;;;;;17.80;34.63;97390.09;4452549;32;34441;-81
2022/04/07 05:22:45;;;;;;;;;;;;;;;17.78;35.60;97391.12;4457059;32;35032;-80
2022/04/07 05:25:13;;;;;;;;;;;;;;;18.33;33.93;97386.81;4467115;32;34157;-81
2022/04/07 05:27:40;;;;;;;;;;;;;;;17.86;34.71;97394.25;4451974;32;34253;-82
2022/04/07 05:30:08;;;;;;;;;;;;;;;17.53;35.47;97402.63;4468412;32;33187;-80
2022/04/07 05:32:35;;;;;;;;;;;;;;;16.78;36.97;97408.38;4468502;32;34106;-80
2022/04/07 05:35:03;;;;;;;;;;;;;;;17.30;35.99;97410.63;4467900;32;34181;-80
2022/04/07 05:37:30;;;;;;;;;;;;;;;17.36;36.36;97415.63;4467092;32;35179;-82
2022/04/07 05:39:58;;;;;;;;;;;;;;;18.03;35.01;97422.31;4454351;32;33414;-80
2022/04/07 05:42:30;;;;;;;;;;;;;;;18.40;34.62;97419.72;4468547;32;35126;-80
2022/04/07 05:44:58;;;;;;;;;;;;;;;18.48;34.65;97430.69;4468365;32;34430;-82
2022/04/07 05:47:25;;;;;;;;;;;;;;;18.38;34.79;97439.09;4464231;32;35161;-81
2022/04/07 05:49:53;;;;;;;;;;;;;;;18.70;34.23;97441.06;4468288;32;34567;-81
2022/04/07 05:52:20;;;;;;;;;;;;;;;18.86;34.05;97441.19;4464169;32;34233;-80
2022/04/07 05:54:48;;;;;;;;;;;;;;;16.82;36.92;97451.88;4453620;32;34835;-81
2022/04/07 05:57:15;;;;;;;;;;;;;;;16.82;36.95;97448.37;4453317;32;35319;-81
2022/04/07 05:59:42;;;;;;;;;;;;;;;17.48;35.59;97446.53;4452939;32;35088;-82
2022/04/07 06:02:09;;;;;;;;;;;;;;;16.80;36.78;97461.53;4464915;32;33721;-80
2022/04/07 06:04:39;;;;;;;;;;;;;;;17.08;36.68;97457.78;4467174;32;34874;-80
2022/04/07 06:07:06;;;;;;;;;;;;;;;16.90;36.72;97462.87;4464625;32;34496;-81
2022/04/07 06:09:35;;;;;;;;;;;;;;;16.63;37.31;97456.94;4466876;32;33639;-81
2022/04/07 06:12:02;;;;;;;;;;;;;;;17.15;36.42;97459.25;4454091;32;34189;-80
2022/04/07 06:14:30;;;;;;;;;;;;;;;17.22;36.09;97450.22;4468120;32;35236;-80
2022/04/07 06:16:57;;;;;;;;;;;;;;;17.16;36.33;97461.81;4467849;32;34183;-81
2022/04/07 06:19:25;;;;;;;;;;;;;;;16.96;36.73;97453.91;4466213;32;33387;-82
2022/04/07 06:21:52;;;;;;;;;;;;;;;18.00;35.02;97460.03;4468149;32;35104;-81
2022/04/07 06:24:20;;;;;;;;;;;;;;;17.49;35.96;97464.78;4466259;32;33327;-81
2022/04/07 06:26:49;;;;;;;;;;;;;;;18.03;34.84;97470.34;4452551;32;35263;-81
2022/04/07 06:29:16;;;;;;;;;;;;;;;18.22;34.30;97475.63;4452793;32;33626;-80
2022/04/07 06:31:43;;;;;;;;;;;;;;;18.16;34.12;97470.69;4458616;32;34104;-83
2022/04/07 06:34:20;;;;;;;;;;;;;;;18.98;33.42;97473.91;4457720;32;34109;-81
2022/04/07 06:36:47;;;;;;;;;;;;;;;18.59;34.41;97480.06;4452579;32;35136;-81
2022/04/07 06:39:16;;;;;;;;;;;;;;;18.76;34.14;97487.19;4452427;32;33823;-81
2022/04/07 06:41:43;;;;;;;;;;;;;;;18.83;34.49;97499.13;4453857;32;34854;-79
2022/04/07 06:44:11;;;;;;;;;;;;;;;19.34;33.85;97499.28;4467825;32;34147;-80
2022/04/07 06:46:38;;;;;;;;;;;;;;;19.95;31.52;97484.88;4468000;32;34740;-80
2022/04/07 06:49:06;;;;;;;;;;;;;;;19.52;32.27;97497.53;4467936;32;34017;-80
2022/04/07 06:51:33;;;;;;;;;;;;;;;19.84;32.21;97488.03;4470986;32;33938;-80
2022/04/07 06:54:00;;;;;;;;;;;;;;;20.03;31.51;97485.31;4467806;32;34144;-82
2022/04/07 06:56:27;;;;;;;;;;;;;;;19.53;32.01;97489.56;4468119;32;34480;-81
2022/04/07 06:58:55;;;;;;;;;;;;;;;19.36;33.90;97485.16;4453643;32;34454;-82
2022/04/07 07:01:23;;;;;;;;;;;;;;;19.00;33.03;97484.31;4467748;32;33844;-82
2022/04/07 07:03:50;;;;;;;;;;;;;;;19.27;33.04;97482.97;4466438;32;34265;-83
2022/04/07 07:06:17;;;;;;;;;;;;;;;19.67;32.82;97484.50;4461986;32;34341;-81
2022/04/07 07:08:45;;;;;;;;;;;;;;;20.07;32.46;97489.47;4451453;32;33491;-82
2022/04/07 07:11:14;;;;;;;;;;;;;;;20.23;32.00;97486.88;4452061;32;34138;-82
2022/04/07 07:13:42;;;;;;;;;;;;;;;20.33;30.68;97491.59;4451822;32;34363;-82
2022/04/07 07:16:09;;;;;;;;;;;;;;;19.47;32.40;97491.66;4452156;32;34143;-82
2022/04/07 07:18:38;;;;;;;;;;;;;;;19.71;32.34;97493.09;4452183;32;33469;-82
2022/04/07 07:21:05;;;;;;;;;;;;;;;20.07;31.88;97492.94;4452081;32;35007;-82
2022/04/07 07:23:32;;;;;;;;;;;;;;;19.91;32.33;97490.28;4452139;32;35296;-82
2022/04/07 07:26:00;;;;;;;;;;;;;;;20.25;32.05;97485.87;4452235;32;34979;-82
2022/04/07 07:28:27;;;;;;;;;;;;;;;20.31;31.91;97493.47;4451733;32;33487;-82
2022/04/07 07:30:54;;;;;;;;;;;;;;;20.02;32.92;97496.78;4438328;32;33973;-82
2022/04/07 07:33:22;;;;;;;;;;;;;;;20.09;32.76;97491.09;4452033;32;34227;-81
2022/04/07 07:35:49;;;;;;;;;;;;;;;19.91;33.87;97494.69;4452048;32;35165;-82
2022/04/07 07:38:16;;;;;;;;;;;;;;;20.13;33.38;97482.12;4438061;32;33740;-82
2022/04/07 07:40:43;;;;;;;;;;;;;;;19.59;33.57;97483.16;4452028;32;34897;-82
2022/04/07 07:43:11;;;;;;;;;;;;;;;18.24;36.28;97497.41;4451915;32;34530;-82
2022/04/07 07:45:38;;;;;;;;;;;;;;;18.36;34.93;97494.22;4452103;32;33994;-82
2022/04/07 07:48:28;;;;;;;;;;;;;;;18.55;34.76;97502.13;4451923;32;33602;-82
2022/04/07 07:50:56;;;;;;;;;;;;;;;18.67;34.36;97487.56;4452046;32;34332;-82
2022/04/07 07:53:24;;;;;;;;;;;;;;;19.05;33.63;97498.91;4437957;32;34563;-82
2022/04/07 07:55:53;;;;;;;;;;;;;;;19.23;33.65;97502.44;4437849;32;34111;-82
2022/04/07 07:58:20;;;;;;;;;;;;;;;19.22;33.81;97503.38;4451998;32;33562;-82
2022/04/07 08:00:48;;;;;;;;;;;;;;;18.60;34.96;97500.16;4451849;32;33678;-82
2022/04/07 08:03:15;;;;;;;;;;;;;;;19.23;33.85;97509.47;4451701;32;34938;-82
2022/04/07 08:05:43;;;;;;;;;;;;;;;19.51;33.46;97514.22;4451866;32;34161;-82
2022/04/07 08:08:11;;;;;;;;;;;;;;;18.50;34.90;97509.37;4451668;32;33478;-83
2022/04/07 08:10:39;;;;;;;;;;;;;;;19.78;33.07;97498.91;4437508;32;33807;-82
2022/04/07 08:13:06;;;;;;;;;;;;;;;19.87;32.48;97516.81;4451503;32;34091;-82
2022/04/07 08:15:34;;;;;;;;;;;;;;;20.29;32.06;97505.84;4451589;32;35243;-83
2022/04/07 08:18:02;;;;;;;;;;;;;;;19.91;32.39;97506.06;4451509;32;33073;-82
2022/04/07 08:20:29;;;;;;;;;;;;;;;19.00;33.88;97511.44;4450383;32;33828;-83
2022/04/07 08:22:56;;;;;;;;;;;;;;;19.75;33.13;97513.03;4451536;32;35226;-82
2022/04/07 08:25:24;;;;;;;;;;;;;;;19.82;33.47;97513.59;4451452;32;35043;-82
2022/04/07 08:27:51;;;;;;;;;;;;;;;19.26;34.54;97520.69;4451642;32;33346;-84
2022/04/07 08:30:18;;;;;;;;;;;;;;;18.92;35.41;97521.44;4437501;32;34296;-82
2022/04/07 08:32:45;;;;;;;;;;;;;;;19.04;35.36;97518.22;4437150;32;33816;-82
2022/04/07 08:35:13;;;;;;;;;;;;;;;19.29;34.78;97523.19;4451413;32;34021;-82
2022/04/07 08:37:40;;;;;;;;;;;;;;;18.93;36.09;97524.00;4451596;32;33287;-82
2022/04/07 08:40:07;;;;;;;;;;;;;;;19.34;35.39;97521.16;4437033;32;32973;-82
2022/04/07 08:42:35;;;;;;;;;;;;;;;19.64;35.04;97523.25;4451244;32;34152;-82
2022/04/07 08:45:02;;;;;;;;;;;;;;;19.85;34.03;97514.28;4451389;32;35196;-83
2022/04/07 08:47:30;;;;;;;;;;;;;;;19.50;34.88;97516.00;4451056;32;34271;-82
2022/04/07 08:49:57;;;;;;;;;;;;;;;19.19;35.61;97521.91;4437106;32;35002;-82
2022/04/07 08:52:24;;;;;;;;;;;;;;;19.36;35.67;97514.06;4437114;32;35239;-82
2022/04/07 08:54:52;;;;;;;;;;;;;;;18.60;37.38;97512.41;4436875;32;34243;-82
2022/04/07 08:57:19;;;;;;;;;;;;;;;17.87;38.97;97516.53;4437053;32;33616;-82
2022/04/07 08:59:46;;;;;;;;;;;;;;;18.29;38.22;97508.53;4451109;32;33645;-82
2022/04/07 09:02:13;;;;;;;;;;;;;;;17.82;39.38;97511.50;4450883;32;33570;-82
2022/04/07 09:04:41;;;;;;;;;;;;;;;18.20;38.50;97504.56;4437111;32;33698;-82
2022/04/07 09:07:10;;;;;;;;;;;;;;;18.59;37.94;97503.69;4451059;32;33580;-82
2022/04/07 09:09:37;;;;;;;;;;;;;;;19.45;35.88;97502.25;4436580;32;34855;-82
2022/04/07 09:12:05;;;;;;;;;;;;;;;19.80;35.02;97497.03;4451261;32;33869;-81
2022/04/07 09:14:33;;;;;;;;;;;;;;;19.51;35.52;97493.19;4451049;32;34088;-82
2022/04/07 09:17:02;;;;;;;;;;;;;;;19.52;35.00;97495.75;4436909;32;33631;-82
2022/04/07 09:19:30;;;;;;;;;;;;;;;19.19;35.21;97495.63;4436817;32;34216;-82
2022/04/07 09:22:24;;;;;;;;;;;;;;;18.92;36.02;97488.16;4450787;32;34825;-82
2022/04/07 09:24:51;;;;;;;;;;;;;;;18.20;37.04;97490.59;4449113;32;34469;-82
2022/04/07 09:27:18;;;;;;;;;;;;;;;19.33;35.60;97484.47;4450718;32;33266;-82
2022/04/07 09:29:47;;;;;;;;;;;;;;;19.18;35.88;97488.69;4450671;32;34147;-82
2022/04/07 09:32:24;;;;;;;;;;;;;;;19.20;36.34;97489.44;4452582;32;34411;-82
2022/04/07 09:34:53;;;;;;;;;;;;;;;19.20;37.31;97492.91;4439000;32;34734;-83
2022/04/07 09:37:21;;;;;;;;;;;;;;;18.91;37.43;97491.72;4452901;32;33750;-83
2022/04/07 09:39:49;;;;;;;;;;;;;;;18.39;38.23;97493.25;4438557;32;34946;-82
2022/04/07 09:42:20;;;;;;;;;;;;;;;17.90;39.04;97484.94;4438692;32;35100;-81
2022/04/07 09:44:50;;;;;;;;;;;;;;;17.93;39.55;97475.19;4439057;32;35012;-82
2022/04/07 09:47:19;;;;;;;;;;;;;;;18.14;38.79;97478.59;4452986;32;33761;-82
2022/04/07 09:49:47;;;;;;;;;;;;;;;18.10;40.12;97471.78;4452932;32;34349;-82
2022/04/07 09:52:23;;;;;;;;;;;;;;;19.40;36.72;97476.19;4452824;32;34017;-82
2022/04/07 09:54:53;;;;;;;;;;;;;;;18.98;36.89;97480.91;4438771;32;35008;-82
2022/04/07 09:57:21;;;;;;;;;;;;;;;18.32;38.35;97469.06;4439259;32;33388;-82
2022/04/07 09:59:48;;;;;;;;;;;;;;;18.86;37.24;97472.69;4438841;32;34232;-83
2022/04/07 10:02:16;;;;;;;;;;;;;;;19.36;35.91;97466.78;4438495;32;34180;-82
2022/04/07 10:04:44;;;;;;;;;;;;;;;19.87;35.32;97458.97;4438653;32;34771;-83
2022/04/07 10:07:12;;;;;;;;;;;;;;;19.13;35.86;97469.66;4452745;32;33900;-82
2022/04/07 10:09:40;;;;;;;;;;;;;;;18.36;37.57;97465.38;4452360;32;33704;-82
2022/04/07 10:12:09;;;;;;;;;;;;;;;18.99;36.21;97467.72;4438762;32;34321;-82
2022/04/07 10:14:36;;;;;;;;;;;;;;;20.31;33.61;97459.25;4452715;32;35217;-82
2022/04/07 10:17:04;;;;;;;;;;;;;;;18.68;36.00;97463.91;4452604;32;34170;-82
2022/04/07 10:19:33;;;;;;;;;;;;;;;19.43;34.85;97465.53;4452656;32;35118;-82
2022/04/07 10:22:12;;;;;;;;;;;;;;;19.80;33.62;97450.53;4438474;32;33878;-82
2022/04/07 10:24:47;;;;;;;;;;;;;;;20.16;33.13;97452.19;4438627;32;35200;-82
2022/04/07 10:27:34;;;;;;;;;;;;;;;18.84;35.32;97447.44;4441080;32;33588;-82
2022/04/07 10:30:11;;;;;;;;;;;;;;;19.38;34.07;97433.37;4438704;32;34523;-82
2022/04/07 10:32:45;;;;;;;;;;;;;;;19.39;34.24;97424.53;4452570;32;35372;-82
2022/04/07 10:35:29;;;;;;;;;;;;;;;18.60;35.61;97437.16;4452500;32;34519;-82
2022/04/07 10:37:57;;;;;;;;;;;;;;;20.11;32.75;97433.13;4452199;32;33259;-82
2022/04/07 10:40:37;;;;;;;;;;;;;;;19.76;33.27;97424.47;4438540;32;35111;-82
2022/04/07 10:43:10;;;;;;;;;;;;;;;19.77;32.54;97423.53;4437707;32;34887;-83
2022/04/07 10:45:39;;;;;;;;;;;;;;;19.88;33.03;97424.69;4452534;32;35180;-82
2022/04/07 10:48:16;;;;;;;;;;;;;;;19.85;32.25;97416.97;4438771;32;33661;-82
2022/04/07 10:51:10;;;;;;;;;;;;;;;19.52;32.35;97410.81;4452052;32;34197;-82
2022/04/07 10:53:37;;;;;;;;;;;;;;;19.62;31.86;97419.94;4451119;32;35247;-80
2022/04/07 10:56:07;;;;;;;;;;;;;;;19.84;33.21;97410.00;4452234;32;34502;-82
2022/04/07 10:58:47;;;;;;;;;;;;;;;20.26;30.90;97406.00;4452593;32;34576;-82
2022/04/07 11:01:33;;;;;;;;;;;;;;;20.80;29.61;97401.28;4452173;32;34388;-83
2022/04/07 11:04:18;;;;;;;;;;;;;;;20.21;30.90;97396.66;4452197;32;34004;-82
2022/04/07 11:07:04;;;;;;;;;;;;;;;21.26;29.40;97392.53;4452173;32;34393;-82
2022/04/07 11:09:47;;;;;;;;;;;;;;;21.06;30.12;97396.28;4451948;32;34037;-82
2022/04/07 11:12:18;;;;;;;;;;;;;;;21.36;29.46;97404.22;4452437;32;34034;-82
2022/04/07 11:14:46;;;;;;;;;;;;;;;21.13;29.29;97389.72;4452077;32;34435;-81
2022/04/07 11:17:26;;;;;;;;;;;;;;;21.20;28.95;97387.59;4452343;32;35258;-81
2022/04/07 11:19:55;;;;;;;;;;;;;;;21.24;29.87;97389.97;4438075;32;33535;-81
2022/04/07 11:22:43;;;;;;;;;;;;;;;20.76;30.49;97399.78;4438147;32;34083;-82
2022/04/07 11:25:11;;;;;;;;;;;;;;;20.81;31.14;97397.72;4452164;32;34307;-82
2022/04/07 11:27:42;;;;;;;;;;;;;;;21.46;28.48;97388.72;4437798;32;35175;-82
2022/04/07 11:30:10;;;;;;;;;;;;;;;20.20;30.25;97395.81;4451995;32;33687;-82
2022/04/07 11:32:38;;;;;;;;;;;;;;;20.25;31.15;97398.19;4452276;32;34430;-82
2022/04/07 11:35:13;;;;;;;;;;;;;;;20.39;30.86;97396.50;4438107;32;34713;-82
2022/04/07 11:37:41;;;;;;;;;;;;;;;21.33;28.61;97401.81;4438231;32;34046;-81
2022/04/07 11:40:09;;;;;;;;;;;;;;;20.40;30.55;97398.19;4452387;32;32921;-82
2022/04/07 11:42:37;;;;;;;;;;;;;;;20.76;29.93;97383.97;4452208;32;33906;-82
2022/04/07 11:45:04;;;;;;;;;;;;;;;20.44;30.97;97387.50;4452042;32;34517;-82
2022/04/07 11:47:34;;;;;;;;;;;;;;;21.54;29.15;97375.94;4451870;32;35391;-82
2022/04/07 11:50:02;;;;;;;;;;;;;;;21.45;29.74;97385.25;4451807;32;33682;-81
2022/04/07 11:52:33;;;;;;;;;;;;;;;21.93;27.38;97377.06;4438269;32;34067;-82
2022/04/07 11:55:01;;;;;;;;;;;;;;;21.17;28.87;97372.81;4451598;32;34777;-82
2022/04/07 11:57:28;;;;;;;;;;;;;;;21.14;29.34;97376.50;4437970;32;35089;-82
2022/04/07 11:59:59;;;;;;;;;;;;;;;21.72;28.50;97374.81;4425249;32;34469;-82
2022/04/07 12:02:27;;;;;;;;;;;;;;;21.43;27.71;97379.19;4451907;32;34623;-82
2022/04/07 12:04:59;;;;;;;;;;;;;;;21.49;28.47;97373.56;4451735;32;35213;-82
2022/04/07 12:07:27;;;;;;;;;;;;;;;22.44;27.34;97366.88;4437811;32;34873;-82
2022/04/07 12:09:57;;;;;;;;;;;;;;;22.45;26.92;97360.66;4451546;32;34160;-82
2022/04/07 12:12:25;;;;;;;;;;;;;;;22.06;27.21;97356.91;4451702;32;34010;-82
2022/04/07 12:14:52;;;;;;;;;;;;;;;21.43;27.80;97357.28;4437549;32;35188;-82
2022/04/07 12:17:22;;;;;;;;;;;;;;;22.82;27.42;97346.75;4451452;32;34374;-82
2022/04/07 12:19:49;;;;;;;;;;;;;;;23.51;24.86;97350.06;4466057;32;33187;-81
2022/04/07 12:22:16;;;;;;;;;;;;;;;23.23;25.89;97343.19;4454666;32;33665;-82
2022/04/07 12:24:56;;;;;;;;;;;;;;;23.72;26.81;97347.78;4451747;32;34235;-82
2022/04/07 12:27:31;;;;;;;;;;;;;;;23.37;26.28;97347.50;4460007;32;35713;-81
2022/04/07 12:29:59;;;;;;;;;;;;;;;23.20;26.72;97340.72;4451313;32;33559;-81
2022/04/07 12:32:31;;;;;;;;;;;;;;;22.66;28.57;97356.63;4451161;32;33601;-81
2022/04/07 12:34:58;;;;;;;;;;;;;;;23.13;28.05;97349.19;4450020;32;34453;-81
2022/04/07 12:37:44;;;;;;;;;;;;;;;22.76;28.58;97344.50;4452095;32;35104;-82
2022/04/07 12:40:15;;;;;;;;;;;;;;;22.75;29.36;97337.53;4437280;32;33774;-81
2022/04/07 12:42:52;;;;;;;;;;;;;;;23.26;27.90;97340.34;4451176;32;34771;-81
2022/04/07 12:45:20;;;;;;;;;;;;;;;24.19;27.32;97346.22;4451100;32;34398;-81
2022/04/07 12:48:07;;;;;;;;;;;;;;;24.33;26.57;97347.87;4462784;32;35586;-81
2022/04/07 12:50:54;;;;;;;;;;;;;;;23.88;26.60;97350.19;4466616;32;33336;-81
2022/04/07 12:53:31;;;;;;;;;;;;;;;22.62;31.20;97331.38;4466890;32;34848;-81
2022/04/07 12:56:02;;;;;;;;;;;;;;;22.46;28.92;97331.50;4466292;32;34345;-80
2022/04/07 12:58:31;;;;;;;;;;;;;;;22.46;29.31;97333.28;4450954;32;35138;-81